createdAt,value
2022-08-04T00:01:51.815Z,26.15
2022-08-04T00:04:24.725Z,26.18
2022-08-04T00:06:59.923Z,26.02
2022-08-04T00:10:02.038Z,26.09
2022-08-04T00:13:04.986Z,26.12
2022-08-04T00:15:45.624Z,26.09
2022-08-04T00:18:35.011Z,26.11
2022-08-04T00:21:15.982Z,26.21
2022-08-04T00:24:12.374Z,25.96
2022-08-04T00:26:33.640Z,25.77
2022-08-04T00:29:00.626Z,25.76
2022-08-04T00:31:53.598Z,25.68
2022-08-04T00:34:15.104Z,25.80
2022-08-04T00:36:45.205Z,25.87
2022-08-04T00:39:12.888Z,25.90
2022-08-04T00:41:56.105Z,25.80
2022-08-04T00:44:23.914Z,25.93
2022-08-04T00:47:03.268Z,25.70
2022-08-04T00:49:44.129Z,25.68
2022-08-04T00:52:30.830Z,25.54
2022-08-04T00:55:23.134Z,25.35
2022-08-04T00:58:11.443Z,25.60
2022-08-04T01:00:45.153Z,25.40
2022-08-04T01:03:12.198Z,25.26
2022-08-04T01:05:59.059Z,25.32
2022-08-04T01:09:00.022Z,25.45
2022-08-04T01:11:56.952Z,25.42
2022-08-04T01:14:30.038Z,25.37
2022-08-04T01:17:13.894Z,25.29
2022-08-04T01:19:40.840Z,25.16
2022-08-04T01:22:10.781Z,25.24
2022-08-04T01:24:47.773Z,25.56
2022-08-04T01:27:17.713Z,25.73
2022-08-04T01:29:50.100Z,25.77
2022-08-04T01:32:19.706Z,25.72
2022-08-04T01:34:55.241Z,25.57
2022-08-04T01:37:28.188Z,25.75
2022-08-04T01:40:04.749Z,25.72
2022-08-04T01:42:33.339Z,25.65
2022-08-04T01:45:05.917Z,25.75
2022-08-04T01:47:35.213Z,25.82
2022-08-04T01:50:12.941Z,25.71
2022-08-04T01:52:41.231Z,25.38
2022-08-04T01:55:54.205Z,25.66
2022-08-04T01:58:31.372Z,25.45
2022-08-04T02:01:18.137Z,25.55
2022-08-04T02:04:21.603Z,25.31
2022-08-04T02:06:45.556Z,25.38
2022-08-04T02:09:36.068Z,25.56
2022-08-04T02:13:10.072Z,25.24
2022-08-04T02:16:26.063Z,25.54
2022-08-04T02:19:05.480Z,25.46
2022-08-04T02:21:42.637Z,25.41
2022-08-04T02:24:14.302Z,25.53
2022-08-04T02:26:42.073Z,25.42
2022-08-04T02:29:11.961Z,25.31
2022-08-04T02:32:01.368Z,25.24
2022-08-04T02:34:47.856Z,25.23
2022-08-04T02:37:16.961Z,25.20
2022-08-04T02:39:49.255Z,25.22
2022-08-04T02:42:16.762Z,25.23
2022-08-04T02:44:48.120Z,25.40
2022-08-04T02:47:15.090Z,25.17
2022-08-04T02:49:42.396Z,25.05
2022-08-04T02:52:10.680Z,24.80
2022-08-04T02:54:58.101Z,24.69
2022-08-04T02:58:01.088Z,24.63
2022-08-04T03:00:42.289Z,24.44
2022-08-04T03:03:48.080Z,24.48
2022-08-04T03:06:42.165Z,24.71
2022-08-04T03:09:44.124Z,24.91
2022-08-04T03:13:02.209Z,25.02
2022-08-04T03:15:58.438Z,25.22
2022-08-04T03:18:44.227Z,25.06
2022-08-04T03:21:11.056Z,24.59
2022-08-04T03:24:00.120Z,24.41
2022-08-04T03:26:30.001Z,24.40
2022-08-04T03:29:05.975Z,24.40
2022-08-04T03:31:48.426Z,24.46
2022-08-04T03:34:15.243Z,24.46
2022-08-04T03:36:48.101Z,24.48
2022-08-04T03:39:18.076Z,24.32
2022-08-04T03:41:56.082Z,24.12
2022-08-04T03:44:33.648Z,24.03
2022-08-04T03:47:19.357Z,23.93
2022-08-04T03:50:05.018Z,23.82
2022-08-04T03:52:50.516Z,23.66
2022-08-04T03:55:49.126Z,23.67
2022-08-04T03:59:10.161Z,23.75
2022-08-04T04:02:06.825Z,23.90
2022-08-04T04:04:33.980Z,23.84
2022-08-04T04:07:14.986Z,23.81
2022-08-04T04:10:13.155Z,23.75
2022-08-04T04:13:09.625Z,23.79
2022-08-04T04:15:49.584Z,23.82
2022-08-04T04:18:31.623Z,23.72
2022-08-04T04:21:16.882Z,24.04
2022-08-04T04:23:43.736Z,24.14
2022-08-04T04:26:40.943Z,24.17
2022-08-04T04:29:07.743Z,24.12
2022-08-04T04:31:37.583Z,24.16
2022-08-04T04:34:23.298Z,24.27
2022-08-04T04:36:59.468Z,24.51
2022-08-04T04:39:29.307Z,25.01
2022-08-04T04:42:02.277Z,25.80
2022-08-04T04:44:48.045Z,26.48
2022-08-04T04:48:01.718Z,26.28
2022-08-04T04:51:03.183Z,27.05
2022-08-04T04:54:08.170Z,27.82
2022-08-04T04:56:57.013Z,27.67
2022-08-04T04:59:46.189Z,27.36
2022-08-04T05:03:09.185Z,27.82
2022-08-04T05:06:28.168Z,28.80
2022-08-04T05:09:41.193Z,29.26
2022-08-04T05:14:32.241Z,29.56
2022-08-04T05:15:31.256Z,29.94
2022-08-04T05:18:00.336Z,30.17
2022-08-04T05:20:48.171Z,29.63
2022-08-04T05:23:29.894Z,28.83
2022-08-04T05:25:59.227Z,29.83
2022-08-04T05:28:26.910Z,29.02
2022-08-04T05:30:57.167Z,28.90
2022-08-04T05:33:31.308Z,29.68
2022-08-04T05:36:18.840Z,29.76
2022-08-04T05:38:51.198Z,30.50
2022-08-04T05:41:19.042Z,31.86
2022-08-04T05:43:46.705Z,31.95
2022-08-04T05:46:34.190Z,32.68
2022-08-04T05:49:39.223Z,33.44
2022-08-04T05:52:19.996Z,33.12
2022-08-04T05:54:48.041Z,33.45
2022-08-04T05:57:15.246Z,33.66
2022-08-04T06:00:39.805Z,33.30
2022-08-04T06:03:39.220Z,33.32
2022-08-04T06:06:21.382Z,33.07
2022-08-04T06:09:09.264Z,33.28
2022-08-04T06:12:00.476Z,34.24
2022-08-04T06:14:37.257Z,32.66
2022-08-04T06:17:05.919Z,33.75
2022-08-04T06:19:59.234Z,34.33
2022-08-04T06:22:33.613Z,34.05
2022-08-04T06:25:01.556Z,34.24
2022-08-04T06:27:48.242Z,34.38
2022-08-04T06:30:49.248Z,35.21
2022-08-04T06:33:54.774Z,36.06
2022-08-04T06:36:20.812Z,36.46
2022-08-04T06:38:48.012Z,34.36
2022-08-04T06:42:02.453Z,35.20
2022-08-04T06:44:51.826Z,33.17
2022-08-04T06:47:22.417Z,33.74
2022-08-04T06:51:25.597Z,34.17
2022-08-04T06:52:38.940Z,35.23
2022-08-04T06:55:06.745Z,34.19
2022-08-04T06:57:34.826Z,35.48
2022-08-04T07:00:24.316Z,34.77
2022-08-04T07:03:28.250Z,35.46
2022-08-04T07:06:14.110Z,33.85
2022-08-04T07:09:03.282Z,34.76
2022-08-04T07:11:44.872Z,34.58
2022-08-04T07:14:12.126Z,33.64
2022-08-04T07:16:59.256Z,34.23
2022-08-04T07:20:00.323Z,34.79
2022-08-04T07:22:48.828Z,36.23
2022-08-04T07:25:16.613Z,35.31
2022-08-04T07:28:03.305Z,35.39
2022-08-04T07:30:46.008Z,33.75
2022-08-04T07:33:13.874Z,32.37
2022-08-04T07:36:09.572Z,33.77
2022-08-04T07:38:52.430Z,32.76
2022-08-04T07:41:40.351Z,33.77
2022-08-04T07:44:08.142Z,35.02
2022-08-04T07:46:35.813Z,33.89
2022-08-04T07:49:56.164Z,33.08
2022-08-04T07:52:24.125Z,32.16
2022-08-04T07:54:51.677Z,34.28
2022-08-04T07:57:39.616Z,34.44
2022-08-04T08:00:06.272Z,35.25
2022-08-04T08:02:38.846Z,34.23
2022-08-04T08:05:07.892Z,34.95
2022-08-04T08:07:55.352Z,34.53
2022-08-04T08:10:53.823Z,34.91
2022-08-04T08:13:54.330Z,34.20
2022-08-04T08:16:21.288Z,35.09
2022-08-04T08:19:12.324Z,34.21
2022-08-04T08:21:59.489Z,35.81
2022-08-04T08:24:26.884Z,36.18
2022-08-04T08:26:53.981Z,33.56
2022-08-04T08:29:42.437Z,35.30
2022-08-04T08:32:43.313Z,33.94
2022-08-04T08:35:24.557Z,34.24
2022-08-04T08:37:56.454Z,34.66
2022-08-04T08:40:41.377Z,33.59
2022-08-04T08:44:06.003Z,33.89
2022-08-04T08:46:48.095Z,33.44
2022-08-04T08:49:12.246Z,34.37
2022-08-04T08:51:58.964Z,34.30
2022-08-04T08:54:25.735Z,33.30
2022-08-04T08:57:05.982Z,33.92
2022-08-04T09:00:04.355Z,33.37
2022-08-04T09:02:45.495Z,32.31
2022-08-04T09:05:18.536Z,32.83
2022-08-04T09:08:31.384Z,33.63
2022-08-04T09:11:24.115Z,34.18
2022-08-04T09:14:20.741Z,34.02
2022-08-04T09:17:10.398Z,34.16
2022-08-04T09:20:14.354Z,34.28
2022-08-04T09:23:04.654Z,35.26
2022-08-04T09:26:07.397Z,35.38
2022-08-04T09:28:54.820Z,34.78
2022-08-04T09:31:24.502Z,35.51
2022-08-04T09:33:59.363Z,36.33
2022-08-04T09:36:29.283Z,36.73
2022-08-04T09:39:09.901Z,36.66
2022-08-04T09:41:49.053Z,36.09
2022-08-04T09:44:49.798Z,33.70
2022-08-04T09:47:25.757Z,34.37
2022-08-04T09:50:25.502Z,33.63
2022-08-04T09:52:52.365Z,33.33
2022-08-04T09:55:31.470Z,34.47
2022-08-04T09:58:07.964Z,34.41
2022-08-04T10:00:41.345Z,35.80
2022-08-04T10:03:15.978Z,35.17
2022-08-04T10:06:24.465Z,35.92
2022-08-04T10:09:41.400Z,35.64
2022-08-04T10:12:25.044Z,37.01
2022-08-04T10:14:52.260Z,37.10
2022-08-04T10:17:53.415Z,36.90
2022-08-04T10:21:10.172Z,37.55
2022-08-04T10:24:08.165Z,38.24
2022-08-04T10:26:54.320Z,37.28
2022-08-04T10:29:30.068Z,36.64
2022-08-04T10:32:23.420Z,37.08
2022-08-04T10:35:03.890Z,36.00
2022-08-04T10:38:00.875Z,35.66
2022-08-04T10:40:37.424Z,34.55
2022-08-04T10:43:20.942Z,33.95
2022-08-04T10:46:05.350Z,33.81
2022-08-04T10:48:45.763Z,33.95
2022-08-04T10:51:58.380Z,33.89
2022-08-04T10:54:26.823Z,33.72
2022-08-04T10:56:57.041Z,35.02
2022-08-04T10:59:29.985Z,35.75
2022-08-04T11:02:03.737Z,35.59
2022-08-04T11:04:40.097Z,33.95
2022-08-04T11:07:08.759Z,34.97
2022-08-04T11:09:56.462Z,33.89
2022-08-04T11:12:58.430Z,34.83
2022-08-04T11:16:06.593Z,34.54
2022-08-04T11:19:45.173Z,35.48
2022-08-04T11:22:28.828Z,35.91
2022-08-04T11:25:09.628Z,36.02
2022-08-04T11:28:15.665Z,34.56
2022-08-04T11:31:21.476Z,35.32
2022-08-04T11:34:22.514Z,34.11
2022-08-04T11:37:22.248Z,34.60
2022-08-04T11:39:51.820Z,34.45
2022-08-04T11:42:21.150Z,34.44
2022-08-04T11:44:49.398Z,34.46
2022-08-04T11:47:52.483Z,34.84
2022-08-04T11:50:43.388Z,35.11
2022-08-04T11:53:36.929Z,35.87
2022-08-04T11:56:38.010Z,35.69
2022-08-04T11:59:20.964Z,35.64
2022-08-04T12:01:47.817Z,35.70
2022-08-04T12:04:14.785Z,35.96
2022-08-04T12:07:31.813Z,35.82
2022-08-04T12:10:41.175Z,36.61
2022-08-04T12:13:29.188Z,37.15
2022-08-04T12:16:14.706Z,37.45
2022-08-04T12:18:48.919Z,36.22
2022-08-04T12:21:31.730Z,36.57
2022-08-04T12:24:22.498Z,37.03
2022-08-04T12:27:05.058Z,37.21
2022-08-04T12:30:54.122Z,36.18
2022-08-04T12:33:10.511Z,36.75
2022-08-04T12:36:11.395Z,35.97
2022-08-04T12:38:41.381Z,35.72
2022-08-04T12:41:09.571Z,36.17
2022-08-04T12:43:44.598Z,36.20
2022-08-04T12:46:13.369Z,36.15
2022-08-04T12:48:45.605Z,35.27
2022-08-04T12:52:06.775Z,35.57
2022-08-04T12:54:24.717Z,35.47
2022-08-04T12:57:29.533Z,35.04
2022-08-04T13:00:11.253Z,35.36
2022-08-04T13:02:41.946Z,35.41
2022-08-04T13:05:09.636Z,35.40
2022-08-04T13:08:05.531Z,35.50
2022-08-04T13:11:09.860Z,35.02
2022-08-04T13:14:17.340Z,34.73
2022-08-04T13:16:42.076Z,34.62
2022-08-04T13:19:41.112Z,34.69
2022-08-04T13:22:26.885Z,35.44
2022-08-04T13:24:56.589Z,35.79
2022-08-04T13:28:01.553Z,35.63
2022-08-04T13:31:08.551Z,35.83
2022-08-04T13:33:53.420Z,35.31
2022-08-04T13:36:24.513Z,34.67
2022-08-04T13:39:14.410Z,34.97
2022-08-04T13:41:45.648Z,35.50
2022-08-04T13:44:27.420Z,35.73
2022-08-04T13:47:40.551Z,35.68
2022-08-04T13:50:42.541Z,35.85
2022-08-04T13:53:43.559Z,35.13
2022-08-04T13:56:49.141Z,34.81
2022-08-04T13:59:33.566Z,35.60
2022-08-04T14:02:06.005Z,35.64
2022-08-04T14:04:54.566Z,35.75
2022-08-04T14:07:59.539Z,35.67
2022-08-04T14:10:54.410Z,35.51
2022-08-04T14:13:40.968Z,35.96
2022-08-04T14:16:19.542Z,36.04
2022-08-04T14:18:46.905Z,36.35
2022-08-04T14:21:17.678Z,36.58
2022-08-04T14:24:05.617Z,36.85
2022-08-04T14:27:06.587Z,36.89
2022-08-04T14:29:47.234Z,36.93
2022-08-04T14:32:14.893Z,36.93
2022-08-04T14:34:47.216Z,36.78
2022-08-04T14:37:19.244Z,36.83
2022-08-04T14:40:17.853Z,36.85
2022-08-04T14:42:54.577Z,36.68
2022-08-04T14:45:36.823Z,36.62
2022-08-04T14:48:08.648Z,36.61
2022-08-04T14:50:40.247Z,36.81
2022-08-04T14:53:17.228Z,37.03
2022-08-04T14:55:48.635Z,36.23
2022-08-04T14:58:35.316Z,36.62
2022-08-04T15:01:10.549Z,36.79
2022-08-04T15:03:58.609Z,36.87
2022-08-04T15:07:00.618Z,36.69
2022-08-04T15:10:05.626Z,36.43
2022-08-04T15:13:06.604Z,36.66
2022-08-04T15:16:08.608Z,36.67
2022-08-04T15:18:49.643Z,36.72
2022-08-04T15:21:17.143Z,36.38
2022-08-04T15:24:04.628Z,36.59
2022-08-04T15:27:06.595Z,36.71
2022-08-04T15:29:59.237Z,36.34
2022-08-04T15:32:33.078Z,36.41
2022-08-04T15:35:04.791Z,36.18
2022-08-04T15:37:37.504Z,35.99
2022-08-04T15:40:09.261Z,35.83
2022-08-04T15:42:38.953Z,35.73
2022-08-04T15:45:20.262Z,35.39
2022-08-04T15:48:00.929Z,35.75
2022-08-04T15:50:29.730Z,35.98
2022-08-04T15:53:01.104Z,35.99
2022-08-04T15:55:58.657Z,36.19
2022-08-04T15:58:50.097Z,36.21
2022-08-04T16:01:17.350Z,36.28
2022-08-04T16:04:04.625Z,36.25
2022-08-04T16:07:17.645Z,36.50
2022-08-04T16:10:29.825Z,36.39
2022-08-04T16:13:10.284Z,36.39
2022-08-04T16:15:39.968Z,36.07
2022-08-04T16:18:13.809Z,36.07
2022-08-04T16:20:59.223Z,36.18
2022-08-04T16:23:53.648Z,36.28
2022-08-04T16:26:55.137Z,36.24
2022-08-04T16:29:38.062Z,36.11
2022-08-04T16:32:05.088Z,35.75
2022-08-04T16:34:49.244Z,35.60
2022-08-04T16:37:19.220Z,35.58
2022-08-04T16:39:50.462Z,35.73
2022-08-04T16:42:27.843Z,35.73
2022-08-04T16:45:11.794Z,35.48
2022-08-04T16:47:47.893Z,35.26
2022-08-04T16:50:14.747Z,35.11
2022-08-04T16:52:45.522Z,35.17
2022-08-04T16:55:14.850Z,35.25
2022-08-04T16:57:41.930Z,35.35
2022-08-04T17:00:09.224Z,35.30
2022-08-04T17:02:56.663Z,35.40
2022-08-04T17:05:57.674Z,35.31
2022-08-04T17:08:58.691Z,35.28
2022-08-04T17:11:39.981Z,35.18
2022-08-04T17:14:26.734Z,35.15
2022-08-04T17:18:05.803Z,34.86
2022-08-04T17:20:28.476Z,34.82
2022-08-04T17:24:14.917Z,34.95
2022-08-04T17:26:40.496Z,34.80
2022-08-04T17:29:43.158Z,34.74
2022-08-04T17:32:19.860Z,34.69
2022-08-04T17:34:48.663Z,34.67
2022-08-04T17:40:06.743Z,34.70
2022-08-04T17:42:39.876Z,34.53
2022-08-04T17:47:58.708Z,34.48
2022-08-04T17:50:30.228Z,34.44
2022-08-04T17:53:12.030Z,34.47
2022-08-04T17:55:43.700Z,34.23
2022-08-04T18:01:52.727Z,34.14
2022-08-04T18:05:07.011Z,33.92
2022-08-04T18:08:45.774Z,33.80
2022-08-04T18:11:22.048Z,33.87
2022-08-04T18:14:02.268Z,33.69
2022-08-04T18:16:29.111Z,33.72
2022-08-04T18:19:12.978Z,33.71
2022-08-04T18:21:46.463Z,33.44
2022-08-04T18:24:34.085Z,33.46
2022-08-04T18:27:24.065Z,33.45
2022-08-04T18:30:38.500Z,33.24
2022-08-04T18:33:24.165Z,33.18
2022-08-04T18:36:36.947Z,33.14
2022-08-04T18:40:17.409Z,33.16
2022-08-04T18:42:22.301Z,33.12
2022-08-04T18:44:55.167Z,33.01
2022-08-04T18:47:29.942Z,32.95
2022-08-04T18:51:01.237Z,32.89
2022-08-04T18:52:45.699Z,32.93
2022-08-04T18:55:13.232Z,32.77
2022-08-04T18:58:01.505Z,32.56
2022-08-04T19:00:32.798Z,32.69
2022-08-04T19:03:01.491Z,32.71
2022-08-04T19:05:37.785Z,32.59
2022-08-04T19:08:34.927Z,32.53
2022-08-04T19:11:38.671Z,32.34
2022-08-04T19:14:13.233Z,32.42
2022-08-04T19:17:00.797Z,32.49
2022-08-04T19:20:02.800Z,32.39
2022-08-04T19:24:28.245Z,32.34
2022-08-04T19:26:02.610Z,32.28
2022-08-04T19:28:47.271Z,32.19
2022-08-04T19:31:17.076Z,32.31
2022-08-04T19:34:05.758Z,32.12
2022-08-04T19:36:59.883Z,32.21
2022-08-04T19:39:26.849Z,32.22
2022-08-04T19:42:05.615Z,32.10
2022-08-04T19:44:33.691Z,31.98
2022-08-04T19:47:02.200Z,31.95
2022-08-04T19:50:03.656Z,31.78
2022-08-04T19:52:34.301Z,31.85
2022-08-04T19:55:10.357Z,31.77
2022-08-04T19:57:46.380Z,31.65
2022-08-04T20:00:34.815Z,31.69
2022-08-04T20:03:20.441Z,31.35
2022-08-04T20:05:53.492Z,31.24
2022-08-04T20:08:48.371Z,31.19
2022-08-04T20:11:49.838Z,31.24
2022-08-04T20:14:33.395Z,31.05
2022-08-04T20:17:21.118Z,31.00
2022-08-04T20:20:41.846Z,30.99
2022-08-04T20:23:47.894Z,30.87
2022-08-04T20:26:50.914Z,30.74
2022-08-04T20:29:40.144Z,30.98
2022-08-04T20:32:09.836Z,31.08
2022-08-04T20:34:56.845Z,31.10
2022-08-04T20:37:55.160Z,30.99
2022-08-04T20:40:27.003Z,30.82
2022-08-04T20:42:54.317Z,30.53
2022-08-04T20:45:24.141Z,30.38
2022-08-04T20:48:11.050Z,30.31
2022-08-04T20:50:37.801Z,30.34
2022-08-04T20:53:16.604Z,30.15
2022-08-04T20:55:55.401Z,30.05
2022-08-04T20:58:27.707Z,30.07
2022-08-04T21:00:55.665Z,29.55
2022-08-04T21:03:38.809Z,29.61
2022-08-04T21:06:10.544Z,29.81
2022-08-04T21:08:57.899Z,29.66
2022-08-04T21:11:58.852Z,29.82
2022-08-04T21:14:39.354Z,30.09
2022-08-04T21:17:07.324Z,29.86
2022-08-04T21:19:36.802Z,29.62
2022-08-04T21:22:06.830Z,29.68
2022-08-04T21:24:37.548Z,29.35
2022-08-04T21:27:25.169Z,29.47
2022-08-04T21:30:29.853Z,29.72
2022-08-04T21:33:10.446Z,29.58
2022-08-04T21:35:41.108Z,29.49
2022-08-04T21:38:16.475Z,29.49
2022-08-04T21:40:58.808Z,29.49
2022-08-04T21:43:29.925Z,29.67
2022-08-04T21:46:09.638Z,29.72
2022-08-04T21:48:38.111Z,29.78
2022-08-04T21:51:59.312Z,29.91
2022-08-04T21:54:03.221Z,29.96
2022-08-04T21:56:30.542Z,29.75
2022-08-04T21:58:58.968Z,29.50
2022-08-04T22:01:51.665Z,29.41
2022-08-04T22:04:35.510Z,29.22
2022-08-04T22:07:04.413Z,28.98
2022-08-04T22:10:02.299Z,28.88
2022-08-04T22:12:43.468Z,28.67
2022-08-04T22:15:22.833Z,28.60
2022-08-04T22:18:24.393Z,28.56
2022-08-04T22:21:11.892Z,28.42
2022-08-04T22:23:41.795Z,28.40
2022-08-04T22:26:33.970Z,28.48
2022-08-04T22:29:15.542Z,28.60
2022-08-04T22:31:56.164Z,28.58
2022-08-04T22:34:57.902Z,28.36
2022-08-04T22:38:25.364Z,28.35
2022-08-04T22:41:01.792Z,28.53
2022-08-04T22:43:32.069Z,28.42
2022-08-04T22:45:59.910Z,28.50
2022-08-04T22:48:29.105Z,28.51
2022-08-04T22:50:59.463Z,28.37
2022-08-04T22:53:26.347Z,28.41
2022-08-04T22:56:06.781Z,28.41
2022-08-04T22:58:40.223Z,28.63
2022-08-04T23:01:07.985Z,28.64
2022-08-04T23:03:36.441Z,28.46
2022-08-04T23:06:06.454Z,28.33
2022-08-04T23:08:57.910Z,28.28
2022-08-04T23:11:43.278Z,28.04
2022-08-04T23:14:30.946Z,28.11
2022-08-04T23:17:19.108Z,28.07
2022-08-04T23:19:57.982Z,27.96
2022-08-04T23:22:41.021Z,27.92
2022-08-04T23:25:33.011Z,28.21
2022-08-04T23:28:30.361Z,28.02
2022-08-04T23:30:57.338Z,28.15
2022-08-04T23:33:49.094Z,27.97
2022-08-04T23:36:50.964Z,27.87
2022-08-04T23:39:42.257Z,27.87
2022-08-04T23:42:21.231Z,27.75
2022-08-04T23:44:48.591Z,28.00
2022-08-04T23:48:18.344Z,27.90
2022-08-04T23:50:02.193Z,27.71
2022-08-04T23:52:29.908Z,27.76
2022-08-04T23:54:58.341Z,27.69
2022-08-04T23:57:31.626Z,27.49
